Savona, Canada
Current Conditions -  °F | °C
As of 11:00 AM on Thursday 27 Nov 2014 (Local Time) from CYKA Reporting Station
Broken Clouds Broken Clouds  
Wind Chill: 35°   Ceiling: 10000
Heat Index: 43°   Visibility: 40mi
Dew Point: 37°   Wind: 15mph
Humidity: 81%   Direction: 100°E
Pressure: 29.61"   Gusts: 21mph
Location:  50.75°N, 120.85°W
Report Text: CYKA 271900Z 10013G18KT 40SM FEW015 SCT057 BKN100 06/03 A2961 RMK SC1SC2AC2 SLP038
Loading
Personal Weather Stations






























Interactive Weather Map New forecast layout! Learn more

10-Day Weather Forecast

Advertisements
Track Severe Weather on mobile